Time;durP1;ratioP1;P1;durP2;ratioP2;P2;SDS_P1;SDS_P2;PMS_P1;PMS_P2;Temp;Humidity;BMP_temperature;BMP_pressure;BME280_temperature;BME280_humidity;BME280_pressure;Samples;Min_cycle;Max_cycle;Signal;HPM_P1;HPM_P2
2023/10/04 00:02:13;;;;;;;20.23;11.75;;;;;;;;;;5087332;28;20434;-75
2023/10/04 00:04:43;;;;;;;14.77;9.30;;;;;;;;;;5098285;28;20440;-73
2023/10/04 00:07:08;;;;;;;12.10;8.70;;;;;;;;;;5100942;28;20015;-73
2023/10/04 00:09:34;;;;;;;24.63;14.38;;;;;;;;;;5095474;28;20132;-75
2023/10/04 00:11:59;;;;;;;24.88;13.80;;;;;;;;;;5098650;28;20041;-75
2023/10/04 00:14:25;;;;;;;15.25;10.25;;;;;;;;;;5096773;28;20046;-74
2023/10/04 00:16:52;;;;;;;14.98;9.45;;;;;;;;;;5097706;28;20027;-74
2023/10/04 00:19:17;;;;;;;22.95;12.73;;;;;;;;;;5097273;27;20115;-76
2023/10/04 00:21:43;;;;;;;35.90;21.05;;;;;;;;;;5086333;28;20503;-75
2023/10/04 00:24:11;;;;;;;68.65;39.28;;;;;;;;;;5095219;28;20023;-74
2023/10/04 00:26:36;;;;;;;49.28;28.55;;;;;;;;;;5096726;28;20422;-74
2023/10/04 00:29:04;;;;;;;25.10;16.40;;;;;;;;;;5090210;28;20023;-74
2023/10/04 00:31:31;;;;;;;19.00;13.43;;;;;;;;;;5092678;28;20128;-76
2023/10/04 00:33:56;;;;;;;22.75;11.75;;;;;;;;;;5096703;28;20107;-76
2023/10/04 00:36:22;;;;;;;15.25;10.65;;;;;;;;;;5097909;28;20621;-74
2023/10/04 00:38:48;;;;;;;15.30;9.98;;;;;;;;;;5094551;28;20019;-75
2023/10/04 00:41:13;;;;;;;20.60;13.50;;;;;;;;;;5089317;28;20036;-76
2023/10/04 00:43:49;;;;;;;24.35;13.85;;;;;;;;;;5094618;28;20038;-75
2023/10/04 00:46:16;;;;;;;23.77;15.95;;;;;;;;;;5129284;27;20462;-75
2023/10/04 00:48:42;;;;;;;18.75;13.63;;;;;;;;;;5091974;28;20038;-75
2023/10/04 00:51:08;;;;;;;16.38;11.75;;;;;;;;;;5098774;28;20020;-76
2023/10/04 00:53:34;;;;;;;16.05;11.18;;;;;;;;;;5095476;28;20035;-75
2023/10/04 00:55:59;;;;;;;16.33;11.23;;;;;;;;;;5094226;28;20466;-75
2023/10/04 00:58:25;;;;;;;16.35;12.05;;;;;;;;;;5091511;28;20019;-74
2023/10/04 01:00:50;;;;;;;18.17;12.18;;;;;;;;;;5092343;28;20034;-74
2023/10/04 01:03:20;;;;;;;18.20;12.93;;;;;;;;;;5099297;28;20059;-74
2023/10/04 01:05:51;;;;;;;21.35;14.52;;;;;;;;;;5096540;28;20328;-75
2023/10/04 01:08:20;;;;;;;16.40;10.68;;;;;;;;;;5097128;28;20028;-73
2023/10/04 01:10:49;;;;;;;18.88;10.95;;;;;;;;;;5096900;28;20069;-73
2023/10/04 01:13:18;;;;;;;15.50;10.00;;;;;;;;;;5094303;28;20031;-73
2023/10/04 01:15:44;;;;;;;15.35;10.68;;;;;;;;;;5097480;28;20470;-73
2023/10/04 01:18:15;;;;;;;16.60;11.77;;;;;;;;;;5085050;28;20038;-73
2023/10/04 01:20:40;;;;;;;13.77;10.45;;;;;;;;;;5081713;28;20556;-73
2023/10/04 01:23:10;;;;;;;24.20;14.48;;;;;;;;;;5090159;28;20110;-73
2023/10/04 01:25:37;;;;;;;18.10;13.52;;;;;;;;;;5097430;28;20020;-74
2023/10/04 01:28:11;;;;;;;17.88;13.77;;;;;;;;;;5094774;28;20086;-77
2023/10/04 01:30:37;;;;;;;20.35;13.52;;;;;;;;;;5096898;28;20015;-74
2023/10/04 01:33:04;;;;;;;19.58;13.45;;;;;;;;;;5096276;28;20695;-73
2023/10/04 01:35:30;;;;;;;15.25;11.73;;;;;;;;;;5095286;28;20023;-73
2023/10/04 01:37:55;;;;;;;17.17;11.90;;;;;;;;;;5094120;28;20453;-73
2023/10/04 01:40:25;;;;;;;17.92;13.40;;;;;;;;;;5093790;28;20088;-73
2023/10/04 01:42:51;;;;;;;18.90;13.75;;;;;;;;;;5095275;28;20024;-73
2023/10/04 01:45:18;;;;;;;18.45;12.88;;;;;;;;;;5096858;28;20036;-72
2023/10/04 01:47:43;;;;;;;16.58;11.27;;;;;;;;;;5097516;28;20080;-73
2023/10/04 01:50:09;;;;;;;18.55;11.55;;;;;;;;;;5097222;28;20031;-73
2023/10/04 01:52:36;;;;;;;15.85;11.93;;;;;;;;;;5094902;28;20035;-73
2023/10/04 01:55:05;;;;;;;18.52;12.70;;;;;;;;;;5090179;28;20031;-73
2023/10/04 01:57:30;;;;;;;22.92;14.82;;;;;;;;;;5096263;28;20039;-74
2023/10/04 01:59:55;;;;;;;17.15;11.55;;;;;;;;;;5096477;28;20433;-72
2023/10/04 02:02:22;;;;;;;22.35;14.27;;;;;;;;;;5094919;28;20036;-72
2023/10/04 02:04:53;;;;;;;15.98;11.88;;;;;;;;;;5094112;28;20035;-72
2023/10/04 02:07:21;;;;;;;13.38;9.60;;;;;;;;;;5094777;28;20021;-73
2023/10/04 02:09:47;;;;;;;15.73;9.40;;;;;;;;;;5092873;28;20023;-73
2023/10/04 02:12:13;;;;;;;13.15;9.25;;;;;;;;;;5095780;28;20035;-72
2023/10/04 02:14:38;;;;;;;13.45;10.25;;;;;;;;;;5094518;28;20491;-72
2023/10/04 02:17:08;;;;;;;14.95;10.82;;;;;;;;;;5094222;28;20031;-72
2023/10/04 02:19:33;;;;;;;15.43;10.15;;;;;;;;;;5088101;28;20028;-73
2023/10/04 02:21:59;;;;;;;13.30;9.98;;;;;;;;;;5082296;28;20039;-73
2023/10/04 02:24:24;;;;;;;13.05;10.27;;;;;;;;;;5094102;28;20031;-72
2023/10/04 02:26:50;;;;;;;16.85;10.20;;;;;;;;;;5098153;28;20148;-74
2023/10/04 02:29:15;;;;;;;16.13;10.63;;;;;;;;;;5094017;28;20114;-73
2023/10/04 02:31:41;;;;;;;14.63;10.77;;;;;;;;;;5096162;28;20034;-74
2023/10/04 02:34:06;;;;;;;16.52;10.80;;;;;;;;;;5094627;28;20044;-71
2023/10/04 02:36:32;;;;;;;15.23;11.30;;;;;;;;;;5095823;28;20120;-74
2023/10/04 02:38:58;;;;;;;12.65;10.10;;;;;;;;;;5084144;28;20019;-73
2023/10/04 02:41:26;;;;;;;13.95;10.52;;;;;;;;;;5081923;28;20107;-74
2023/10/04 02:43:51;;;;;;;16.83;11.48;;;;;;;;;;5081867;28;20027;-72
2023/10/04 02:46:20;;;;;;;13.20;10.02;;;;;;;;;;5090699;28;20024;-73
2023/10/04 02:48:47;;;;;;;13.03;9.77;;;;;;;;;;5095783;28;20028;-73
2023/10/04 02:51:13;;;;;;;15.07;10.07;;;;;;;;;;5093792;28;20028;-75
2023/10/04 02:53:41;;;;;;;14.30;9.95;;;;;;;;;;5099380;28;20043;-75
2023/10/04 02:56:07;;;;;;;16.80;11.57;;;;;;;;;;5097796;28;20107;-75
2023/10/04 02:58:34;;;;;;;20.73;14.63;;;;;;;;;;5096442;28;20431;-74
2023/10/04 03:01:00;;;;;;;25.02;16.42;;;;;;;;;;5089180;28;20034;-74
2023/10/04 03:03:25;;;;;;;31.85;20.65;;;;;;;;;;5095846;28;20036;-75
2023/10/04 03:05:57;;;;;;;25.27;16.65;;;;;;;;;;5097722;27;20020;-75
2023/10/04 03:08:23;;;;;;;17.40;11.77;;;;;;;;;;5089234;28;20457;-74
2023/10/04 03:10:50;;;;;;;13.93;10.75;;;;;;;;;;5087647;28;20019;-74
2023/10/04 03:13:22;;;;;;;17.90;9.65;;;;;;;;;;5094518;28;20036;-73
2023/10/04 03:15:50;;;;;;;12.15;9.32;;;;;;;;;;5100333;28;20058;-73
2023/10/04 03:18:19;;;;;;;15.18;10.57;;;;;;;;;;5096412;28;20028;-75
2023/10/04 03:21:10;;;;;;;13.13;10.00;;;;;;;;;;5096593;28;20027;-74
2023/10/04 03:23:34;;;;;;;14.25;9.52;;;;;;;;;;5089994;27;20032;-73
2023/10/04 03:26:00;;;;;;;13.10;8.90;;;;;;;;;;5095530;28;20086;-72
2023/10/04 03:28:26;;;;;;;12.85;9.65;;;;;;;;;;5101034;27;20072;-73
2023/10/04 03:30:52;;;;;;;14.10;9.85;;;;;;;;;;5099278;28;20057;-73
2023/10/04 03:33:18;;;;;;;13.65;10.38;;;;;;;;;;5098538;28;20020;-75
2023/10/04 03:35:44;;;;;;;13.27;10.18;;;;;;;;;;5099831;28;20027;-73
2023/10/04 03:38:11;;;;;;;14.05;11.13;;;;;;;;;;5098594;28;20035;-74
2023/10/04 03:40:38;;;;;;;11.32;9.77;;;;;;;;;;5100709;28;20066;-74
2023/10/04 03:43:06;;;;;;;16.75;11.98;;;;;;;;;;5099486;28;20439;-73
2023/10/04 03:45:32;;;;;;;17.02;11.85;;;;;;;;;;5113927;27;20647;-74
2023/10/04 03:47:58;;;;;;;15.15;11.30;;;;;;;;;;5095623;28;20429;-72
2023/10/04 03:50:24;;;;;;;15.63;10.63;;;;;;;;;;5096189;28;20024;-74
2023/10/04 03:52:51;;;;;;;14.00;10.30;;;;;;;;;;5095844;28;20043;-73
2023/10/04 03:55:17;;;;;;;15.32;10.10;;;;;;;;;;5089809;28;20122;-73
2023/10/04 03:57:43;;;;;;;14.02;10.45;;;;;;;;;;5092145;28;20053;-75
2023/10/04 04:00:12;;;;;;;14.27;11.15;;;;;;;;;;5100483;28;20028;-74
2023/10/04 04:02:41;;;;;;;16.83;12.88;;;;;;;;;;5086118;28;20111;-72
2023/10/04 04:05:09;;;;;;;18.10;12.23;;;;;;;;;;5082832;28;20031;-74
2023/10/04 04:07:35;;;;;;;13.63;10.48;;;;;;;;;;5084339;28;20020;-73
2023/10/04 04:10:07;;;;;;;17.00;9.27;;;;;;;;;;5084991;28;20104;-76
2023/10/04 04:12:34;;;;;;;12.45;9.48;;;;;;;;;;5085272;28;20058;-75
2023/10/04 04:15:00;;;;;;;10.85;9.00;;;;;;;;;;5083521;28;20089;-73
2023/10/04 04:17:27;;;;;;;12.07;8.65;;;;;;;;;;5084066;28;20028;-74
2023/10/04 04:19:52;;;;;;;12.13;9.15;;;;;;;;;;5109824;27;20027;-74
2023/10/04 04:22:23;;;;;;;14.05;8.98;;;;;;;;;;5097056;28;20457;-72
2023/10/04 04:24:49;;;;;;;12.13;9.02;;;;;;;;;;5089538;28;20032;-73
2023/10/04 04:27:18;;;;;;;14.85;8.88;;;;;;;;;;5092034;28;20105;-72
2023/10/04 04:29:44;;;;;;;16.07;9.87;;;;;;;;;;5097606;28;20020;-72
2023/10/04 04:32:10;;;;;;;14.00;10.95;;;;;;;;;;5096763;28;20020;-72
2023/10/04 04:34:35;;;;;;;16.13;10.68;;;;;;;;;;5093662;28;20437;-74
2023/10/04 04:37:02;;;;;;;16.92;10.65;;;;;;;;;;5094145;28;20023;-73
2023/10/04 04:39:28;;;;;;;16.33;11.27;;;;;;;;;;5096583;28;20031;-72
2023/10/04 04:41:55;;;;;;;13.35;10.48;;;;;;;;;;5097622;28;20031;-72
2023/10/04 04:44:27;;;;;;;15.27;10.85;;;;;;;;;;5097971;28;20036;-73
2023/10/04 04:46:53;;;;;;;13.85;10.85;;;;;;;;;;5086748;28;20034;-72
2023/10/04 04:49:19;;;;;;;17.70;11.27;;;;;;;;;;5083208;28;20118;-73
2023/10/04 04:51:45;;;;;;;12.52;9.90;;;;;;;;;;5081906;28;20027;-73
2023/10/04 04:54:10;;;;;;;13.32;10.63;;;;;;;;;;5087277;28;20080;-72
2023/10/04 04:56:35;;;;;;;14.82;11.45;;;;;;;;;;5093640;28;20107;-73
2023/10/04 04:59:07;;;;;;;16.20;11.40;;;;;;;;;;5095200;28;21254;-73
2023/10/04 05:01:34;;;;;;;17.45;11.43;;;;;;;;;;5088841;28;20027;-73
2023/10/04 05:04:00;;;;;;;17.52;11.75;;;;;;;;;;5085672;28;20031;-73
2023/10/04 05:06:25;;;;;;;20.08;12.02;;;;;;;;;;5086980;28;20020;-73
2023/10/04 05:08:54;;;;;;;17.48;11.82;;;;;;;;;;5090346;28;20038;-72
2023/10/04 05:11:20;;;;;;;21.13;12.30;;;;;;;;;;5096877;28;20020;-72
2023/10/04 05:13:46;;;;;;;15.40;11.40;;;;;;;;;;5090335;28;20108;-74
2023/10/04 05:16:11;;;;;;;15.40;11.75;;;;;;;;;;5084115;28;20050;-71
2023/10/04 05:18:37;;;;;;;16.70;12.77;;;;;;;;;;5087735;28;20028;-73
2023/10/04 05:21:04;;;;;;;15.93;12.80;;;;;;;;;;5084816;28;20618;-72
2023/10/04 05:23:29;;;;;;;16.10;12.15;;;;;;;;;;5095436;28;20510;-73
2023/10/04 05:25:55;;;;;;;14.55;11.65;;;;;;;;;;5091905;28;20103;-71
2023/10/04 05:28:24;;;;;;;15.95;11.43;;;;;;;;;;5076903;28;20039;-73
2023/10/04 05:30:51;;;;;;;16.08;12.32;;;;;;;;;;5086741;28;20038;-73
2023/10/04 05:33:18;;;;;;;16.77;12.02;;;;;;;;;;5094116;28;20067;-74
2023/10/04 05:35:44;;;;;;;17.83;12.63;;;;;;;;;;5086478;28;20502;-72
2023/10/04 05:38:11;;;;;;;14.95;11.65;;;;;;;;;;5083230;28;20032;-73
2023/10/04 05:40:43;;;;;;;15.88;11.70;;;;;;;;;;5087428;28;20023;-72
2023/10/04 05:43:08;;;;;;;14.10;11.70;;;;;;;;;;5087014;28;20032;-73
2023/10/04 05:45:34;;;;;;;16.85;12.32;;;;;;;;;;5086981;28;20034;-72
2023/10/04 05:47:59;;;;;;;17.58;13.70;;;;;;;;;;5097240;28;20130;-73
2023/10/04 05:50:26;;;;;;;15.43;12.52;;;;;;;;;;5097021;28;20063;-73
2023/10/04 05:52:52;;;;;;;16.65;12.63;;;;;;;;;;5093905;28;20019;-73
2023/10/04 05:55:18;;;;;;;15.05;11.48;;;;;;;;;;5089691;28;20031;-73
2023/10/04 05:57:47;;;;;;;12.98;10.93;;;;;;;;;;5096350;28;20150;-72
2023/10/04 06:02:51;;;;;;;13.77;10.98;;;;;;;;;;5096426;28;20042;-72
2023/10/04 06:05:19;;;;;;;16.95;11.98;;;;;;;;;;5094671;28;20097;-72
2023/10/04 06:07:44;;;;;;;14.27;10.75;;;;;;;;;;5093854;28;20028;-73
2023/10/04 06:10:11;;;;;;;17.00;10.60;;;;;;;;;;5095151;28;20452;-73
2023/10/04 06:12:38;;;;;;;14.10;10.82;;;;;;;;;;5096845;28;20102;-73
2023/10/04 06:15:04;;;;;;;17.60;12.00;;;;;;;;;;5095994;28;20028;-73
2023/10/04 06:17:29;;;;;;;15.88;11.63;;;;;;;;;;5095384;28;20035;-73
2023/10/04 06:19:56;;;;;;;15.98;11.35;;;;;;;;;;5096748;28;20488;-73
2023/10/04 06:22:21;;;;;;;17.27;11.77;;;;;;;;;;5094405;28;20116;-73
2023/10/04 06:24:46;;;;;;;17.85;11.55;;;;;;;;;;5096987;28;20224;-73
2023/10/04 06:27:13;;;;;;;16.55;11.27;;;;;;;;;;5098935;28;20126;-72
2023/10/04 06:29:38;;;;;;;13.38;10.20;;;;;;;;;;5099206;28;20035;-72
2023/10/04 06:32:04;;;;;;;15.38;11.05;;;;;;;;;;5099519;28;20032;-72
2023/10/04 06:34:29;;;;;;;14.20;10.48;;;;;;;;;;5098900;28;20492;-73
2023/10/04 06:36:54;;;;;;;13.38;10.30;;;;;;;;;;5100496;28;20079;-72
2023/10/04 06:39:20;;;;;;;13.93;10.18;;;;;;;;;;5096439;28;20027;-72
2023/10/04 06:41:45;;;;;;;15.18;11.27;;;;;;;;;;5099754;28;20076;-73
2023/10/04 06:44:10;;;;;;;14.30;11.05;;;;;;;;;;5097055;27;20085;-72
2023/10/04 06:46:36;;;;;;;17.45;10.55;;;;;;;;;;5100936;28;20088;-73
2023/10/04 06:49:02;;;;;;;14.50;10.95;;;;;;;;;;5098482;28;20019;-72
2023/10/04 06:51:27;;;;;;;16.38;11.13;;;;;;;;;;5096934;27;20038;-71
2023/10/04 06:53:53;;;;;;;15.73;11.38;;;;;;;;;;5099180;27;20020;-72
2023/10/04 06:56:18;;;;;;;20.10;14.77;;;;;;;;;;5099767;28;20064;-71
2023/10/04 06:58:43;;;;;;;19.15;15.60;;;;;;;;;;5101621;28;20069;-72
2023/10/04 07:01:10;;;;;;;17.60;13.25;;;;;;;;;;5099083;28;20059;-73
2023/10/04 07:03:35;;;;;;;38.20;26.65;;;;;;;;;;5098099;28;20346;-73
2023/10/04 07:06:00;;;;;;;25.08;16.85;;;;;;;;;;5100671;28;20067;-71
2023/10/04 07:08:32;;;;;;;19.40;15.20;;;;;;;;;;5099700;28;20020;-72
2023/10/04 07:11:00;;;;;;;17.05;14.10;;;;;;;;;;5100682;28;20035;-72
2023/10/04 07:13:25;;;;;;;16.75;12.85;;;;;;;;;;5100810;28;20046;-72
2023/10/04 07:15:51;;;;;;;16.27;11.40;;;;;;;;;;5100011;28;20028;-74
2023/10/04 07:18:16;;;;;;;16.77;10.85;;;;;;;;;;5099722;28;20496;-71
2023/10/04 07:20:42;;;;;;;14.98;10.93;;;;;;;;;;5100362;27;20032;-72
2023/10/04 07:23:09;;;;;;;16.55;12.50;;;;;;;;;;5097369;28;20138;-72
2023/10/04 07:25:36;;;;;;;19.55;12.68;;;;;;;;;;5101141;28;20084;-73
2023/10/04 07:28:02;;;;;;;19.92;13.25;;;;;;;;;;5098226;28;20053;-73
2023/10/04 07:30:28;;;;;;;18.80;12.27;;;;;;;;;;5098035;28;20073;-71
2023/10/04 07:32:54;;;;;;;17.73;11.10;;;;;;;;;;5100640;28;20023;-72
2023/10/04 07:35:23;;;;;;;16.30;10.07;;;;;;;;;;5098487;28;20044;-71
2023/10/04 07:37:49;;;;;;;12.63;9.75;;;;;;;;;;5097618;28;20024;-72
2023/10/04 07:40:15;;;;;;;14.05;10.02;;;;;;;;;;5100233;28;20050;-73
2023/10/04 07:42:42;;;;;;;17.08;9.73;;;;;;;;;;5098776;28;20069;-72
2023/10/04 07:45:08;;;;;;;13.77;10.70;;;;;;;;;;5099746;28;20039;-72
2023/10/04 07:47:37;;;;;;;17.25;11.55;;;;;;;;;;5099790;28;20072;-72
2023/10/04 07:50:09;;;;;;;15.70;11.05;;;;;;;;;;5097283;28;20050;-72
2023/10/04 07:52:35;;;;;;;14.93;10.25;;;;;;;;;;5097297;28;20032;-71
2023/10/04 07:55:00;;;;;;;16.50;9.55;;;;;;;;;;5099142;28;20027;-71
2023/10/04 07:57:26;;;;;;;13.88;9.38;;;;;;;;;;5097635;28;20342;-71
2023/10/04 07:59:52;;;;;;;12.50;8.80;;;;;;;;;;5096196;28;20033;-73
2023/10/04 08:02:18;;;;;;;15.70;9.60;;;;;;;;;;5098361;28;20460;-73
2023/10/04 08:04:45;;;;;;;13.90;8.90;;;;;;;;;;5094615;28;20492;-73
2023/10/04 08:07:12;;;;;;;11.10;8.98;;;;;;;;;;5099284;28;20039;-71
2023/10/04 08:09:38;;;;;;;15.48;9.38;;;;;;;;;;5099189;28;20106;-73
2023/10/04 08:12:07;;;;;;;12.85;9.45;;;;;;;;;;5097850;28;20439;-72
2023/10/04 08:14:32;;;;;;;14.77;10.47;;;;;;;;;;5098180;28;20052;-73
2023/10/04 08:16:58;;;;;;;12.82;9.77;;;;;;;;;;5097315;28;20302;-72
2023/10/04 08:19:24;;;;;;;11.52;8.63;;;;;;;;;;5096488;28;20028;-75
2023/10/04 08:21:49;;;;;;;14.57;9.55;;;;;;;;;;5098249;28;20540;-73
2023/10/04 08:24:15;;;;;;;15.63;9.55;;;;;;;;;;5098229;28;20039;-72
2023/10/04 08:26:40;;;;;;;16.20;9.60;;;;;;;;;;5098452;28;20028;-71
2023/10/04 08:29:05;;;;;;;23.80;10.40;;;;;;;;;;5098314;28;20019;-74
2023/10/04 08:31:32;;;;;;;12.80;8.85;;;;;;;;;;5095159;28;20024;-72
2023/10/04 08:33:58;;;;;;;13.70;9.30;;;;;;;;;;5096980;28;20043;-75
2023/10/04 08:36:23;;;;;;;14.88;9.35;;;;;;;;;;5096404;28;20122;-72
2023/10/04 08:38:49;;;;;;;12.85;9.70;;;;;;;;;;5098563;28;20089;-72
2023/10/04 08:41:16;;;;;;;13.85;9.40;;;;;;;;;;5097151;28;20714;-72
2023/10/04 08:43:43;;;;;;;17.77;10.65;;;;;;;;;;5097581;28;20039;-73
2023/10/04 08:46:09;;;;;;;16.83;9.95;;;;;;;;;;5095753;28;20413;-75
2023/10/04 08:48:35;;;;;;;18.88;12.98;;;;;;;;;;5094415;28;20127;-72
2023/10/04 08:51:13;;;;;;;16.08;10.95;;;;;;;;;;5096973;28;20039;-74
2023/10/04 08:53:45;;;;;;;16.08;8.98;;;;;;;;;;5099396;28;20024;-75
2023/10/04 08:56:12;;;;;;;12.07;10.15;;;;;;;;;;5095944;28;20462;-72
2023/10/04 08:58:40;;;;;;;12.48;10.15;;;;;;;;;;5098672;28;20047;-72
2023/10/04 09:01:06;;;;;;;16.48;10.75;;;;;;;;;;5098433;28;20020;-73
2023/10/04 09:03:33;;;;;;;20.02;11.18;;;;;;;;;;5094250;28;20439;-74
2023/10/04 09:05:59;;;;;;;15.88;9.52;;;;;;;;;;5097190;28;20073;-72
2023/10/04 09:08:25;;;;;;;16.45;13.23;;;;;;;;;;5096954;28;20031;-72
2023/10/04 09:10:53;;;;;;;21.60;16.00;;;;;;;;;;5097993;28;20050;-72
2023/10/04 09:13:18;;;;;;;16.45;10.80;;;;;;;;;;5096657;28;20051;-72
2023/10/04 09:15:43;;;;;;;11.98;9.82;;;;;;;;;;5095789;28;20137;-73
2023/10/04 09:18:09;;;;;;;15.52;10.57;;;;;;;;;;5092589;28;20031;-72
2023/10/04 09:20:35;;;;;;;16.95;10.35;;;;;;;;;;5095407;28;20042;-73
2023/10/04 09:23:01;;;;;;;22.92;18.23;;;;;;;;;;5097118;28;20095;-75
2023/10/04 09:25:36;;;;;;;18.23;11.35;;;;;;;;;;5098543;28;20035;-78
2023/10/04 09:28:04;;;;;;;17.90;12.82;;;;;;;;;;5097554;28;20023;-75
2023/10/04 09:30:29;;;;;;;20.73;13.82;;;;;;;;;;5098491;28;20023;-75
2023/10/04 09:32:55;;;;;;;19.00;10.25;;;;;;;;;;5096041;28;20038;-73
2023/10/04 09:35:21;;;;;;;14.60;10.00;;;;;;;;;;5096096;28;20047;-72
2023/10/04 09:37:47;;;;;;;13.82;9.30;;;;;;;;;;5094139;28;20119;-73
2023/10/04 09:40:15;;;;;;;15.07;13.43;;;;;;;;;;5095590;28;20024;-73
2023/10/04 09:42:49;;;;;;;14.82;10.30;;;;;;;;;;5097755;28;20114;-72
2023/10/04 09:45:14;;;;;;;21.80;10.77;;;;;;;;;;5084994;28;20576;-73
2023/10/04 09:47:40;;;;;;;15.80;9.25;;;;;;;;;;5094647;28;20039;-72
2023/10/04 09:50:10;;;;;;;11.98;9.30;;;;;;;;;;5095317;28;20035;-73
2023/10/04 09:52:37;;;;;;;17.17;11.80;;;;;;;;;;5095876;28;20023;-73
2023/10/04 09:55:05;;;;;;;15.32;12.27;;;;;;;;;;5097486;28;20112;-73
2023/10/04 09:57:33;;;;;;;20.23;11.15;;;;;;;;;;5094934;28;20050;-73
2023/10/04 09:59:59;;;;;;;14.73;11.27;;;;;;;;;;5093238;28;20024;-74
2023/10/04 10:02:26;;;;;;;14.18;9.73;;;;;;;;;;5098119;28;20332;-74
2023/10/04 10:04:51;;;;;;;15.45;10.27;;;;;;;;;;5090012;28;20028;-74
2023/10/04 10:07:20;;;;;;;15.27;10.05;;;;;;;;;;5096195;28;20061;-73
2023/10/04 10:09:58;;;;;;;13.30;10.35;;;;;;;;;;5096885;28;20427;-73
2023/10/04 10:12:29;;;;;;;12.43;10.07;;;;;;;;;;5094517;28;20150;-75
2023/10/04 10:14:55;;;;;;;17.85;10.18;;;;;;;;;;5094609;28;20032;-75
2023/10/04 10:17:21;;;;;;;12.48;8.93;;;;;;;;;;5096129;28;20031;-72
2023/10/04 10:19:46;;;;;;;14.65;10.07;;;;;;;;;;5095297;28;20020;-74
2023/10/04 10:22:15;;;;;;;15.90;9.82;;;;;;;;;;5096527;28;20067;-73
2023/10/04 10:24:42;;;;;;;;;;;;;;;;;;5094546;28;20104;-76
2023/10/04 10:27:08;;;;;;;16.27;9.90;;;;;;;;;;5094254;28;19911;-74
2023/10/04 10:29:34;;;;;;;14.30;10.13;;;;;;;;;;5097223;28;20346;-74
2023/10/04 10:32:00;;;;;;;13.85;10.30;;;;;;;;;;5095182;28;20107;-73
2023/10/04 10:34:27;;;;;;;14.23;9.30;;;;;;;;;;5094701;28;20048;-74
2023/10/04 10:37:07;;;;;;;12.68;9.38;;;;;;;;;;5095719;28;20470;-72
2023/10/04 10:39:41;;;;;;;13.57;9.50;;;;;;;;;;5096041;28;20023;-73
2023/10/04 10:42:07;;;;;;;13.63;9.27;;;;;;;;;;5097015;28;20052;-73
2023/10/04 10:44:34;;;;;;;12.45;8.50;;;;;;;;;;5095423;28;20030;-74
2023/10/04 10:47:04;;;;;;;13.93;8.55;;;;;;;;;;5095773;28;20020;-74
2023/10/04 10:49:42;;;;;;;12.05;8.48;;;;;;;;;;5097411;28;20373;-75
2023/10/04 10:52:19;;;;;;;19.50;9.68;;;;;;;;;;5095170;28;20066;-76
2023/10/04 10:54:44;;;;;;;10.45;8.52;;;;;;;;;;5095659;28;20117;-75
2023/10/04 10:57:10;;;;;;;9.52;7.65;;;;;;;;;;5094819;28;20051;-74
2023/10/04 10:59:35;;;;;;;15.52;9.70;;;;;;;;;;5097200;28;20028;-75
2023/10/04 11:02:02;;;;;;;14.98;8.23;;;;;;;;;;5094583;28;20030;-76
2023/10/04 11:04:27;;;;;;;12.50;8.00;;;;;;;;;;5093900;28;20046;-75
2023/10/04 11:06:52;;;;;;;16.67;9.65;;;;;;;;;;5096495;28;20778;-75
2023/10/04 11:09:20;;;;;;;16.17;9.32;;;;;;;;;;5097044;28;20794;-75
2023/10/04 11:11:45;;;;;;;17.10;8.48;;;;;;;;;;5096593;28;20549;-75
2023/10/04 11:14:12;;;;;;;12.25;8.77;;;;;;;;;;5100098;28;20118;-75
2023/10/04 11:16:38;;;;;;;12.15;8.52;;;;;;;;;;5096477;28;20366;-75
2023/10/04 11:19:05;;;;;;;12.20;9.00;;;;;;;;;;5098942;28;20019;-74
2023/10/04 11:21:30;;;;;;;10.27;7.82;;;;;;;;;;5096914;28;20059;-74
2023/10/04 11:24:01;;;;;;;14.95;10.32;;;;;;;;;;5099371;28;20460;-77
2023/10/04 11:26:27;;;;;;;20.75;10.52;;;;;;;;;;5097092;28;20544;-75
2023/10/04 11:28:53;;;;;;;12.05;8.90;;;;;;;;;;5099480;28;20063;-75
2023/10/04 11:31:18;;;;;;;20.25;11.35;;;;;;;;;;5097409;28;20027;-75
2023/10/04 11:33:50;;;;;;;16.30;11.20;;;;;;;;;;5099512;28;20411;-74
2023/10/04 11:36:19;;;;;;;19.95;11.02;;;;;;;;;;5097604;28;20019;-77
2023/10/04 11:38:47;;;;;;;12.35;8.60;;;;;;;;;;5096978;28;20031;-75
2023/10/04 11:41:13;;;;;;;11.13;8.32;;;;;;;;;;5076254;28;20502;-75
2023/10/04 11:43:38;;;;;;;11.32;8.20;;;;;;;;;;5075866;28;20039;-75
2023/10/04 11:46:04;;;;;;;9.60;8.07;;;;;;;;;;5074846;28;20024;-75
2023/10/04 11:48:29;;;;;;;13.32;7.55;;;;;;;;;;5077020;28;20093;-75
2023/10/04 11:50:55;;;;;;;11.30;7.30;;;;;;;;;;5079031;28;20434;-75
2023/10/04 11:53:39;;;;;;;12.95;8.25;;;;;;;;;;5075724;28;20024;-75
2023/10/04 11:56:06;;;;;;;16.83;8.20;;;;;;;;;;5079208;28;20362;-75
2023/10/04 11:58:32;;;;;;;12.07;6.72;;;;;;;;;;5075571;28;20068;-75
2023/10/04 12:01:04;;;;;;;10.02;7.18;;;;;;;;;;5077136;28;20020;-76
2023/10/04 12:03:30;;;;;;;9.20;6.95;;;;;;;;;;5077486;28;20024;-76
2023/10/04 12:05:56;;;;;;;10.15;7.82;;;;;;;;;;5074814;28;20105;-74
2023/10/04 12:08:22;;;;;;;9.05;6.63;;;;;;;;;;5082078;28;20383;-75
2023/10/04 12:10:47;;;;;;;11.30;6.80;;;;;;;;;;5080231;28;20068;-75
2023/10/04 12:13:13;;;;;;;10.25;7.15;;;;;;;;;;5076448;28;20066;-75
2023/10/04 12:15:39;;;;;;;8.90;5.97;;;;;;;;;;5077318;28;20059;-73
2023/10/04 12:18:06;;;;;;;8.77;7.35;;;;;;;;;;5077959;28;20104;-74
2023/10/04 12:20:36;;;;;;;8.15;7.13;;;;;;;;;;5075268;28;20458;-76
2023/10/04 12:23:02;;;;;;;10.57;8.38;;;;;;;;;;5075687;28;20445;-75
2023/10/04 12:25:28;;;;;;;11.02;8.63;;;;;;;;;;5074547;28;20024;-76
2023/10/04 12:27:53;;;;;;;8.25;7.35;;;;;;;;;;5076772;28;20432;-76
2023/10/04 12:30:20;;;;;;;12.02;7.70;;;;;;;;;;5075971;28;20023;-77
2023/10/04 12:32:46;;;;;;;16.67;14.93;;;;;;;;;;5077906;28;20419;-75
2023/10/04 12:35:13;;;;;;;17.38;14.20;;;;;;;;;;5072216;28;20066;-77
2023/10/04 12:37:39;;;;;;;11.68;7.65;;;;;;;;;;5071622;28;20108;-75
2023/10/04 12:40:11;;;;;;;14.20;8.73;;;;;;;;;;5075651;28;20059;-76
2023/10/04 12:42:37;;;;;;;9.30;7.25;;;;;;;;;;5087634;28;20442;-76
2023/10/04 12:45:05;;;;;;;11.20;7.60;;;;;;;;;;5081783;28;20020;-75
2023/10/04 12:47:30;;;;;;;10.25;8.40;;;;;;;;;;5078612;28;20519;-77
2023/10/04 12:49:56;;;;;;;21.02;18.65;;;;;;;;;;5078173;28;20073;-75
2023/10/04 12:52:24;;;;;;;14.27;9.75;;;;;;;;;;5076377;28;20068;-77
2023/10/04 12:54:51;;;;;;;12.80;11.45;;;;;;;;;;5076176;27;20123;-76
2023/10/04 12:57:17;;;;;;;10.70;7.55;;;;;;;;;;5074085;28;20038;-77
2023/10/04 12:59:43;;;;;;;12.50;11.20;;;;;;;;;;5075153;28;20024;-74
2023/10/04 13:02:08;;;;;;;12.27;11.05;;;;;;;;;;5077051;28;20502;-75
2023/10/04 13:04:36;;;;;;;10.80;7.40;;;;;;;;;;5076119;28;20043;-77
2023/10/04 13:07:02;;;;;;;20.37;13.83;;;;;;;;;;5077818;28;20080;-75
2023/10/04 13:09:29;;;;;;;10.68;8.20;;;;;;;;;;5081819;28;20099;-75
2023/10/04 13:11:55;;;;;;;13.25;10.55;;;;;;;;;;5081545;28;20012;-76
2023/10/04 13:14:21;;;;;;;11.57;8.52;;;;;;;;;;5078145;28;20023;-76
2023/10/04 13:16:47;;;;;;;10.75;8.55;;;;;;;;;;5080956;28;20443;-75
2023/10/04 13:19:14;;;;;;;9.27;7.65;;;;;;;;;;5090715;28;20032;-76
2023/10/04 13:21:39;;;;;;;11.05;7.35;;;;;;;;;;5091987;28;20040;-75
2023/10/04 13:24:05;;;;;;;9.88;8.27;;;;;;;;;;5089308;28;20145;-75
2023/10/04 13:26:31;;;;;;;9.32;7.78;;;;;;;;;;5091741;28;20077;-75
2023/10/04 13:28:57;;;;;;;11.35;7.60;;;;;;;;;;5091408;28;20110;-78
2023/10/04 13:31:22;;;;;;;9.38;7.35;;;;;;;;;;5095511;28;20179;-73
2023/10/04 13:33:48;;;;;;;9.70;7.07;;;;;;;;;;5095977;27;20046;-74
2023/10/04 13:36:14;;;;;;;10.70;7.85;;;;;;;;;;5092926;28;20028;-76
2023/10/04 13:38:39;;;;;;;10.95;7.30;;;;;;;;;;5084826;28;20028;-75
2023/10/04 13:41:04;;;;;;;9.35;7.18;;;;;;;;;;5068186;28;20439;-78
2023/10/04 13:43:32;;;;;;;9.98;8.05;;;;;;;;;;5084279;28;20146;-76
2023/10/04 13:46:01;;;;;;;7.90;7.10;;;;;;;;;;5080830;28;21272;-78
2023/10/04 13:48:26;;;;;;;8.88;6.93;;;;;;;;;;5082656;28;20072;-75
2023/10/04 13:50:53;;;;;;;10.77;7.45;;;;;;;;;;5089998;28;20356;-76
2023/10/04 13:53:22;;;;;;;8.32;6.80;;;;;;;;;;5078015;28;20039;-76
2023/10/04 13:55:49;;;;;;;11.63;7.18;;;;;;;;;;5077595;28;20039;-75
2023/10/04 13:58:19;;;;;;;9.68;7.75;;;;;;;;;;5079825;28;20043;-75
2023/10/04 14:00:46;;;;;;;10.52;7.60;;;;;;;;;;5080094;28;20058;-75
2023/10/04 14:03:13;;;;;;;8.32;7.20;;;;;;;;;;5073330;28;20037;-77
2023/10/04 14:05:40;;;;;;;10.40;7.22;;;;;;;;;;5089454;28;20043;-75
2023/10/04 14:08:09;;;;;;;9.68;7.90;;;;;;;;;;5086540;28;20036;-73
2023/10/04 14:10:35;;;;;;;10.55;7.82;;;;;;;;;;5085997;28;20024;-73
2023/10/04 14:13:01;;;;;;;9.90;7.70;;;;;;;;;;5091477;28;20027;-75
2023/10/04 14:15:31;;;;;;;12.38;8.23;;;;;;;;;;5092694;28;20032;-78
2023/10/04 14:17:57;;;;;;;11.10;7.30;;;;;;;;;;5089914;28;20453;-73
2023/10/04 14:20:23;;;;;;;9.20;7.30;;;;;;;;;;5086797;28;20028;-73
2023/10/04 14:22:48;;;;;;;12.20;8.63;;;;;;;;;;5085979;28;20036;-75
2023/10/04 14:25:15;;;;;;;9.82;7.82;;;;;;;;;;5090052;28;20054;-74